createdAt,value
2023-02-18T00:01:27.493Z,100944.66
2023-02-18T00:03:54.145Z,100931.28
2023-02-18T00:06:22.705Z,100937.06
2023-02-18T00:08:50.878Z,100934.91
2023-02-18T00:11:19.288Z,100939.81
2023-02-18T00:13:56.616Z,100944.31
2023-02-18T00:16:25.001Z,100960.22
2023-02-18T00:18:55.036Z,100946.91
2023-02-18T00:21:21.972Z,100952.97
2023-02-18T00:23:48.642Z,100961.75
2023-02-18T00:26:17.137Z,100963.66
2023-02-18T00:28:44.164Z,100961.09
2023-02-18T00:31:19.205Z,100975.59
2023-02-18T00:33:46.213Z,100968.38
2023-02-18T00:36:16.073Z,100963.78
2023-02-18T00:38:53.039Z,100971.72
2023-02-18T00:41:21.235Z,100974.34
2023-02-18T00:43:48.614Z,100979.22
2023-02-18T00:46:16.000Z,100980.16
2023-02-18T00:48:42.985Z,100969.69
2023-02-18T00:51:10.848Z,100973.44
2023-02-18T00:53:38.022Z,100984.22
2023-02-18T00:56:05.321Z,100982.28
2023-02-18T00:58:32.131Z,100981.72
2023-02-18T01:00:59.125Z,100989.34
2023-02-18T01:03:25.773Z,100978.53
2023-02-18T01:05:53.107Z,100979.13
2023-02-18T01:08:21.884Z,100977.59
2023-02-18T01:10:50.472Z,100979.66
2023-02-18T01:13:17.099Z,100981.19
2023-02-18T01:15:44.077Z,100983.03
2023-02-18T01:18:11.358Z,100983.28
2023-02-18T01:20:39.554Z,100980.69
2023-02-18T01:23:06.175Z,100976.34
2023-02-18T01:25:33.153Z,100975.63
2023-02-18T01:27:59.986Z,100985.09
2023-02-18T01:30:27.132Z,100970.88
2023-02-18T01:32:53.913Z,100969.38
2023-02-18T01:35:20.838Z,100972.09
2023-02-18T01:37:48.170Z,100968.63
2023-02-18T01:40:17.576Z,100970.22
2023-02-18T01:42:44.526Z,100979.97
2023-02-18T01:45:33.265Z,100982.56
2023-02-18T01:48:04.090Z,100974.53
2023-02-18T01:50:33.534Z,100979.13
2023-02-18T01:53:01.110Z,100976.06
2023-02-18T01:55:29.449Z,100981.72
2023-02-18T01:57:56.280Z,100972.09
2023-02-18T02:00:23.168Z,100960.34
2023-02-18T02:02:52.451Z,100984.38
2023-02-18T02:05:21.119Z,100982.06
2023-02-18T02:07:51.130Z,100983.81
2023-02-18T02:10:19.301Z,100986.63
2023-02-18T02:13:04.809Z,100988.16
2023-02-18T02:15:58.894Z,100994.41
2023-02-18T02:18:28.832Z,100988.22
2023-02-18T02:21:01.324Z,100979.78
2023-02-18T02:23:46.332Z,100991.03
2023-02-18T02:26:43.387Z,100992.47
2023-02-18T02:29:25.760Z,101000.31
2023-02-18T02:32:07.659Z,100999.16
2023-02-18T02:34:52.778Z,100993.69
2023-02-18T02:37:39.719Z,100992.31
2023-02-18T02:40:43.213Z,100984.56
2023-02-18T02:44:00.857Z,100990.56
2023-02-18T02:46:41.539Z,100992.31
2023-02-18T02:49:14.378Z,100980.38
2023-02-18T02:51:59.111Z,100990.50
2023-02-18T02:54:28.152Z,100990.22
2023-02-18T02:57:30.520Z,100993.81
2023-02-18T03:00:01.641Z,100995.19
2023-02-18T03:02:49.637Z,100976.03
2023-02-18T03:05:24.049Z,100979.41
2023-02-18T03:08:20.701Z,100978.88
2023-02-18T03:10:53.362Z,100984.38
2023-02-18T03:13:41.895Z,100989.34
2023-02-18T03:16:25.088Z,100991.53
2023-02-18T03:18:57.968Z,100987.25
2023-02-18T03:21:30.263Z,101000.72
2023-02-18T03:24:01.629Z,100998.13
2023-02-18T03:26:30.407Z,101002.50
2023-02-18T03:29:02.736Z,101004.31
2023-02-18T03:31:30.735Z,101005.16
2023-02-18T03:34:04.273Z,100994.06
2023-02-18T03:36:33.157Z,101004.22
2023-02-18T03:39:04.443Z,101003.69
2023-02-18T03:41:31.719Z,101004.16
2023-02-18T03:44:04.607Z,101002.72
2023-02-18T03:46:32.276Z,101005.69
2023-02-18T03:48:59.612Z,100999.44
2023-02-18T03:51:26.222Z,101005.31
2023-02-18T03:53:52.807Z,101012.66
2023-02-18T03:56:20.114Z,101013.16
2023-02-18T03:58:46.946Z,100996.09
2023-02-18T04:01:14.080Z,101002.28
2023-02-18T04:03:40.705Z,100998.41
2023-02-18T04:06:08.150Z,101001.25
2023-02-18T04:08:35.086Z,100987.75
2023-02-18T04:11:01.820Z,100987.22
2023-02-18T04:13:28.910Z,101003.78
2023-02-18T04:15:55.565Z,101002.69
2023-02-18T04:20:50.749Z,101014.06
2023-02-18T04:23:17.726Z,101006.53
2023-02-18T04:25:44.691Z,100995.31
2023-02-18T04:28:13.953Z,100999.19
2023-02-18T04:30:40.588Z,100993.34
2023-02-18T04:33:07.422Z,100991.66
2023-02-18T04:35:34.284Z,100996.00
2023-02-18T04:38:00.859Z,100999.84
2023-02-18T04:40:30.624Z,101005.06
2023-02-18T04:42:58.224Z,101003.94
2023-02-18T04:45:26.191Z,100999.75
2023-02-18T04:47:52.960Z,101003.50
2023-02-18T04:50:20.142Z,101007.88
2023-02-18T04:52:46.780Z,101006.25
2023-02-18T04:55:14.115Z,101002.91
2023-02-18T04:57:40.775Z,101003.81
2023-02-18T05:00:09.502Z,101005.56
2023-02-18T05:02:36.078Z,101001.59
2023-02-18T05:05:02.874Z,101011.22
2023-02-18T05:07:29.481Z,101004.59
2023-02-18T05:09:56.088Z,101005.31
2023-02-18T05:12:22.660Z,101010.00
2023-02-18T05:14:49.246Z,101003.94
2023-02-18T05:17:15.841Z,101009.22
2023-02-18T05:19:42.465Z,101009.72
2023-02-18T05:22:09.214Z,101009.53
2023-02-18T05:24:35.897Z,101009.41
2023-02-18T05:27:02.497Z,100999.66
2023-02-18T05:29:29.106Z,100999.34
2023-02-18T05:31:55.752Z,100996.50
2023-02-18T05:34:22.347Z,101000.69
2023-02-18T05:36:48.970Z,100997.56
2023-02-18T05:39:15.540Z,100992.00
2023-02-18T05:41:42.133Z,100997.25
2023-02-18T05:44:27.691Z,100996.09
2023-02-18T05:46:54.277Z,100991.41
2023-02-18T05:49:20.879Z,100986.41
2023-02-18T05:51:47.715Z,100989.25
2023-02-18T05:54:14.280Z,100994.19
2023-02-18T05:56:41.427Z,100992.31
2023-02-18T05:59:08.534Z,100993.63
2023-02-18T06:01:35.250Z,100991.84
2023-02-18T06:04:01.824Z,100990.88
2023-02-18T06:06:28.719Z,100997.03
2023-02-18T06:08:55.329Z,100992.31
2023-02-18T06:11:22.005Z,100999.75
2023-02-18T06:13:48.712Z,100980.91
2023-02-18T06:16:15.361Z,100983.94
2023-02-18T06:18:41.929Z,100980.09
2023-02-18T06:21:08.599Z,100979.50
2023-02-18T06:23:35.208Z,100986.97
2023-02-18T06:26:02.093Z,100985.34
2023-02-18T06:28:28.670Z,100981.25
2023-02-18T06:30:55.311Z,100984.09
2023-02-18T06:33:21.946Z,100976.38
2023-02-18T06:36:07.314Z,100987.72
2023-02-18T06:38:35.554Z,100994.63
2023-02-18T06:41:02.392Z,100987.25
2023-02-18T06:43:29.055Z,100988.91
2023-02-18T06:45:55.684Z,100989.38
2023-02-18T06:48:22.662Z,100989.94
2023-02-18T06:50:49.513Z,100985.66
2023-02-18T06:53:17.402Z,100982.97
2023-02-18T06:55:45.321Z,100972.03
2023-02-18T06:58:12.831Z,100973.47
2023-02-18T07:00:39.851Z,100979.97
2023-02-18T07:03:07.923Z,100978.44
2023-02-18T07:05:34.948Z,100987.06
2023-02-18T07:08:01.658Z,100986.56
2023-02-18T07:10:28.433Z,100984.59
2023-02-18T07:12:54.978Z,100977.28
2023-02-18T07:15:24.386Z,100986.50
2023-02-18T07:17:51.937Z,100980.94
2023-02-18T07:20:20.726Z,100975.47
2023-02-18T07:22:48.373Z,100983.50
2023-02-18T07:25:15.258Z,100987.88
2023-02-18T07:27:41.889Z,100982.91
2023-02-18T07:30:09.004Z,100973.34
2023-02-18T07:32:35.940Z,100974.47
2023-02-18T07:35:03.606Z,100984.53
2023-02-18T07:37:30.282Z,100973.31
2023-02-18T07:39:56.897Z,100981.44
2023-02-18T07:42:23.750Z,100958.81
2023-02-18T07:44:50.372Z,100952.84
2023-02-18T07:47:20.823Z,100946.00
2023-02-18T07:49:47.702Z,100938.06
2023-02-18T07:52:15.995Z,100931.94
2023-02-18T07:54:43.020Z,100930.41
2023-02-18T07:57:09.953Z,100929.94
2023-02-18T07:59:36.577Z,100924.44
2023-02-18T08:02:05.379Z,100935.06
2023-02-18T08:04:32.187Z,100919.47
2023-02-18T08:06:58.876Z,100917.69
2023-02-18T08:09:25.513Z,100908.06
2023-02-18T08:11:52.137Z,100906.00
2023-02-18T08:14:18.743Z,100904.41
2023-02-18T08:16:45.502Z,100895.22
2023-02-18T08:19:12.157Z,100894.44
2023-02-18T08:21:38.805Z,100888.09
2023-02-18T08:24:05.594Z,100890.28
2023-02-18T08:26:32.201Z,100881.56
2023-02-18T08:28:58.806Z,100877.53
2023-02-18T08:31:28.335Z,100868.09
2023-02-18T08:33:56.617Z,100864.69
2023-02-18T08:36:23.593Z,100860.19
2023-02-18T08:38:50.324Z,100861.25
2023-02-18T08:41:19.093Z,100849.22
2023-02-18T08:43:47.450Z,100844.53
2023-02-18T08:46:16.714Z,100849.31
2023-02-18T08:48:53.861Z,100852.53
2023-02-18T08:51:23.306Z,100834.13
2023-02-18T08:53:50.336Z,100837.25
2023-02-18T08:56:17.771Z,100841.03
2023-02-18T08:58:44.706Z,100835.13
2023-02-18T09:01:12.868Z,100838.50
2023-02-18T09:03:40.042Z,100832.94
2023-02-18T09:06:07.470Z,100827.56
2023-02-18T09:08:34.256Z,100827.50
2023-02-18T09:11:04.515Z,100818.56
2023-02-18T09:13:40.679Z,100803.97
2023-02-18T09:16:11.513Z,100802.75
2023-02-18T09:18:38.273Z,100788.28
2023-02-18T09:21:07.664Z,100788.22
2023-02-18T09:23:34.545Z,100787.06
2023-02-18T09:26:06.234Z,100786.88
2023-02-18T09:28:33.623Z,100776.13
2023-02-18T09:31:09.921Z,100777.03
2023-02-18T09:33:41.348Z,100769.88
2023-02-18T09:36:08.389Z,100772.13
2023-02-18T09:38:35.661Z,100760.06
2023-02-18T09:41:08.191Z,100752.66
2023-02-18T09:43:43.788Z,100755.44
2023-02-18T09:46:24.109Z,100734.47
2023-02-18T09:48:54.681Z,100729.81
2023-02-18T09:51:21.375Z,100726.66
2023-02-18T09:53:48.195Z,100719.03
2023-02-18T09:56:20.012Z,100706.50
2023-02-18T09:58:48.966Z,100708.38
2023-02-18T10:01:20.266Z,100706.28
2023-02-18T10:03:47.333Z,100697.19
2023-02-18T10:06:22.971Z,100685.34
2023-02-18T10:08:52.397Z,100691.84
2023-02-18T10:11:32.317Z,100691.44
2023-02-18T10:14:01.444Z,100687.97
2023-02-18T10:16:28.815Z,100685.63
2023-02-18T10:19:01.579Z,100679.66
2023-02-18T10:21:33.064Z,100671.66
2023-02-18T10:24:04.161Z,100663.63
2023-02-18T10:26:35.561Z,100648.56
2023-02-18T10:29:02.827Z,100644.09
2023-02-18T10:31:37.569Z,100635.41
2023-02-18T10:34:11.747Z,100621.44
2023-02-18T10:36:54.378Z,100615.91
2023-02-18T10:39:35.345Z,100612.34
2023-02-18T10:42:22.509Z,100601.41
2023-02-18T10:45:10.848Z,100601.25
2023-02-18T10:47:57.828Z,100578.75
2023-02-18T10:50:32.379Z,100575.47
2023-02-18T10:53:10.873Z,100570.06
2023-02-18T10:55:46.082Z,100562.69
2023-02-18T10:58:42.415Z,100546.97
2023-02-18T11:01:15.766Z,100540.69
2023-02-18T11:03:42.618Z,100538.84
2023-02-18T11:06:31.259Z,100523.69
2023-02-18T11:08:59.211Z,100503.38
2023-02-18T11:11:32.240Z,100486.94
2023-02-18T11:14:04.876Z,100491.47
2023-02-18T11:16:40.330Z,100485.81
2023-02-18T11:19:34.512Z,100483.91
2023-02-18T11:22:20.746Z,100462.03
2023-02-18T11:24:50.517Z,100457.16
2023-02-18T11:27:37.850Z,100446.69
2023-02-18T11:30:27.892Z,100440.22
2023-02-18T11:32:59.829Z,100437.63
2023-02-18T11:35:30.159Z,100429.91
2023-02-18T11:37:58.712Z,100428.75
2023-02-18T11:40:31.582Z,100420.44
2023-02-18T11:43:06.796Z,100406.56
2023-02-18T11:45:35.522Z,100395.75
2023-02-18T11:48:08.619Z,100388.31
2023-02-18T11:50:36.233Z,100390.00
2023-02-18T11:53:26.760Z,100380.34
2023-02-18T11:55:56.489Z,100373.69
2023-02-18T11:58:23.278Z,100363.78
2023-02-18T12:00:52.140Z,100353.94
2023-02-18T12:03:48.576Z,100345.91
2023-02-18T12:06:23.845Z,100343.59
2023-02-18T12:08:59.863Z,100326.31
2023-02-18T12:11:57.642Z,100333.03
2023-02-18T12:14:25.647Z,100321.03
2023-02-18T12:17:07.227Z,100313.91
2023-02-18T12:19:42.869Z,100318.16
2023-02-18T12:22:30.578Z,100310.63
2023-02-18T12:25:06.535Z,100307.44
2023-02-18T12:27:43.390Z,100309.00
2023-02-18T12:30:28.553Z,100299.88
2023-02-18T12:32:57.859Z,100295.72
2023-02-18T12:35:43.453Z,100306.00
2023-02-18T12:38:47.393Z,100293.75
2023-02-18T12:41:16.998Z,100287.97
2023-02-18T12:43:58.810Z,100283.19
2023-02-18T12:46:44.469Z,100263.28
2023-02-18T12:49:20.198Z,100279.66
2023-02-18T12:52:02.115Z,100277.47
2023-02-18T12:54:28.635Z,100268.38
2023-02-18T12:56:58.367Z,100257.41
2023-02-18T12:59:57.167Z,100258.84
2023-02-18T13:02:57.233Z,100263.22
2023-02-18T13:05:38.626Z,100247.03
2023-02-18T13:08:36.015Z,100246.47
2023-02-18T13:11:24.473Z,100248.56
2023-02-18T13:14:02.577Z,100237.66
2023-02-18T13:16:31.315Z,100242.47
2023-02-18T13:19:18.949Z,100230.13
2023-02-18T13:21:49.654Z,100222.16
2023-02-18T13:24:37.934Z,100226.94
2023-02-18T13:27:17.595Z,100220.22
2023-02-18T13:30:09.175Z,100221.28
2023-02-18T13:32:51.348Z,100220.78
2023-02-18T13:35:48.951Z,100212.84
2023-02-18T13:39:00.755Z,100236.13
2023-02-18T13:41:27.920Z,100235.66
2023-02-18T13:43:54.843Z,100239.19
2023-02-18T13:46:25.345Z,100233.88
2023-02-18T13:49:06.321Z,100230.41
2023-02-18T13:51:40.666Z,100221.94
2023-02-18T13:54:13.232Z,100214.84
2023-02-18T13:57:00.089Z,100233.78
2023-02-18T13:59:46.950Z,100223.78
2023-02-18T14:02:19.693Z,100217.72
2023-02-18T14:04:46.328Z,100237.25
2023-02-18T14:07:18.852Z,100223.16
2023-02-18T14:09:46.707Z,100229.34
2023-02-18T14:12:44.332Z,100231.31
2023-02-18T14:15:19.667Z,100221.81
2023-02-18T14:18:14.211Z,100228.53
2023-02-18T14:20:40.764Z,100237.44
2023-02-18T14:23:22.711Z,100247.34
2023-02-18T14:25:57.657Z,100249.09
2023-02-18T14:28:39.287Z,100237.81
2023-02-18T14:31:49.351Z,100230.94
2023-02-18T14:34:21.914Z,100240.88
2023-02-18T14:37:22.164Z,100236.63
2023-02-18T14:40:07.083Z,100243.81
2023-02-18T14:42:57.869Z,100250.34
2023-02-18T14:45:58.610Z,100244.94
2023-02-18T14:48:37.059Z,100238.97
2023-02-18T14:51:05.679Z,100242.31
2023-02-18T14:53:40.105Z,100231.13
2023-02-18T14:56:12.096Z,100230.53
2023-02-18T14:58:46.176Z,100240.13
2023-02-18T15:01:25.258Z,100243.59
2023-02-18T15:03:54.629Z,100254.66
2023-02-18T15:06:29.823Z,100244.22
2023-02-18T15:08:57.645Z,100241.38
2023-02-18T15:11:34.700Z,100255.81
2023-02-18T15:14:03.076Z,100254.47
2023-02-18T15:16:34.215Z,100275.25
2023-02-18T15:19:04.646Z,100264.28
2023-02-18T15:21:39.567Z,100283.00
2023-02-18T15:24:18.938Z,100277.25
2023-02-18T15:26:50.306Z,100285.50
2023-02-18T15:29:23.504Z,100289.38
2023-02-18T15:31:50.908Z,100291.56
2023-02-18T15:34:31.469Z,100290.94
2023-02-18T15:37:00.111Z,100303.19
2023-02-18T15:39:27.581Z,100304.22
2023-02-18T15:41:56.771Z,100325.75
2023-02-18T15:44:28.916Z,100323.16
2023-02-18T15:46:59.660Z,100321.59
2023-02-18T15:49:26.330Z,100319.28
2023-02-18T15:51:57.788Z,100323.88
2023-02-18T15:54:28.022Z,100313.94
2023-02-18T15:56:57.409Z,100340.59
2023-02-18T15:59:34.612Z,100343.66
2023-02-18T16:02:20.056Z,100356.81
2023-02-18T16:04:59.115Z,100343.75
2023-02-18T16:07:37.056Z,100344.69
2023-02-18T16:10:24.076Z,100357.84
2023-02-18T16:12:54.329Z,100367.03
2023-02-18T16:15:27.648Z,100373.00
2023-02-18T16:17:54.400Z,100383.56
2023-02-18T16:20:36.075Z,100380.84
2023-02-18T16:23:11.690Z,100383.69
2023-02-18T16:25:48.416Z,100381.47
2023-02-18T16:28:29.859Z,100393.41
2023-02-18T16:30:56.513Z,100390.38
2023-02-18T16:33:23.154Z,100390.25
2023-02-18T16:35:50.834Z,100421.44
2023-02-18T16:38:23.126Z,100418.91
2023-02-18T16:40:50.397Z,100404.69
2023-02-18T16:43:19.664Z,100409.00
2023-02-18T16:45:52.061Z,100401.44
2023-02-18T16:48:35.806Z,100432.72
2023-02-18T16:51:32.987Z,100426.75
2023-02-18T16:53:59.646Z,100443.78
2023-02-18T16:56:32.711Z,100440.09
2023-02-18T16:58:59.821Z,100453.50
2023-02-18T17:01:34.503Z,100451.94
2023-02-18T17:04:02.746Z,100452.16
2023-02-18T17:06:29.873Z,100468.59
2023-02-18T17:08:56.475Z,100471.72
2023-02-18T17:11:25.976Z,100469.28
2023-02-18T17:13:54.439Z,100484.84
2023-02-18T17:16:21.602Z,100501.34
2023-02-18T17:18:48.818Z,100491.09
2023-02-18T17:21:21.118Z,100501.66
2023-02-18T17:23:47.753Z,100526.41
2023-02-18T17:26:16.145Z,100557.19
2023-02-18T17:28:42.917Z,100570.81
2023-02-18T17:31:16.315Z,100579.78
2023-02-18T17:33:44.533Z,100596.06
2023-02-18T17:36:11.889Z,100603.13
2023-02-18T17:38:39.609Z,100597.16
2023-02-18T17:41:07.085Z,100609.75
2023-02-18T17:43:34.170Z,100618.06
2023-02-18T17:46:00.961Z,100622.72
2023-02-18T17:48:28.446Z,100623.03
2023-02-18T17:50:55.423Z,100619.09
2023-02-18T17:53:22.723Z,100618.00
2023-02-18T17:55:49.877Z,100622.06
2023-02-18T17:58:17.360Z,100640.19
2023-02-18T18:00:53.363Z,100650.34
2023-02-18T18:03:20.566Z,100645.97
2023-02-18T18:05:49.500Z,100658.25
2023-02-18T18:08:16.204Z,100659.66
2023-02-18T18:10:58.706Z,100663.88
2023-02-18T18:13:26.794Z,100662.28
2023-02-18T18:15:55.768Z,100662.75
2023-02-18T18:18:24.290Z,100668.91
2023-02-18T18:20:53.544Z,100665.38
2023-02-18T18:23:21.619Z,100678.38
2023-02-18T18:25:54.531Z,100686.34
2023-02-18T18:28:21.196Z,100687.97
2023-02-18T18:30:50.291Z,100698.38
2023-02-18T18:33:18.448Z,100707.44
2023-02-18T18:35:47.642Z,100716.84
2023-02-18T18:38:14.556Z,100710.19
2023-02-18T18:40:41.423Z,100717.84
2023-02-18T18:43:08.024Z,100725.91
2023-02-18T18:45:39.381Z,100727.91
2023-02-18T18:48:07.068Z,100728.66
2023-02-18T18:50:41.880Z,100733.63
2023-02-18T18:53:19.468Z,100747.06
2023-02-18T18:55:46.919Z,100741.09
2023-02-18T18:58:13.857Z,100751.94
2023-02-18T19:00:42.843Z,100745.69
2023-02-18T19:03:13.101Z,100750.41
2023-02-18T19:05:42.444Z,100750.03
2023-02-18T19:08:11.050Z,100755.00
2023-02-18T19:10:42.845Z,100749.81
2023-02-18T19:13:17.614Z,100754.03
2023-02-18T19:15:45.656Z,100750.13
2023-02-18T19:18:18.662Z,100758.22
2023-02-18T19:20:46.436Z,100756.53
2023-02-18T19:23:13.068Z,100757.06
2023-02-18T19:25:41.957Z,100761.84
2023-02-18T19:28:10.415Z,100767.97
2023-02-18T19:30:37.434Z,100764.75
2023-02-18T19:33:06.109Z,100776.13
2023-02-18T19:35:48.212Z,100776.06
2023-02-18T19:38:16.704Z,100775.69
2023-02-18T19:40:44.435Z,100781.66
2023-02-18T19:43:11.638Z,100776.06
2023-02-18T19:45:43.600Z,100794.97
2023-02-18T19:48:11.667Z,100797.41
2023-02-18T19:50:40.296Z,100799.25
2023-02-18T19:53:06.970Z,100794.22
2023-02-18T19:55:33.546Z,100783.69
2023-02-18T19:58:00.136Z,100784.16
2023-02-18T20:00:26.805Z,100790.44
2023-02-18T20:02:53.589Z,100791.97
2023-02-18T20:05:20.455Z,100791.13
2023-02-18T20:07:47.184Z,100803.88
2023-02-18T20:10:16.516Z,100799.56
2023-02-18T20:12:43.519Z,100798.94
2023-02-18T20:15:10.594Z,100797.53
2023-02-18T20:17:39.346Z,100792.53
2023-02-18T20:20:06.644Z,100806.81
2023-02-18T20:22:33.476Z,100803.66
2023-02-18T20:25:00.131Z,100805.34
2023-02-18T20:27:26.737Z,100799.91
2023-02-18T20:29:53.336Z,100809.41
2023-02-18T20:32:20.092Z,100807.81
2023-02-18T20:34:46.867Z,100802.59
2023-02-18T20:37:13.505Z,100807.31
2023-02-18T20:39:40.325Z,100803.31
2023-02-18T20:42:15.790Z,100813.16
2023-02-18T20:44:44.093Z,100813.59
2023-02-18T20:47:12.843Z,100820.25
2023-02-18T20:49:40.528Z,100818.56
2023-02-18T20:52:08.644Z,100825.31
2023-02-18T20:54:35.332Z,100833.72
2023-02-18T20:57:02.333Z,100835.72
2023-02-18T20:59:29.893Z,100837.91
2023-02-18T21:01:56.513Z,100839.13
2023-02-18T21:04:23.135Z,100835.84
2023-02-18T21:06:50.597Z,100831.41
2023-02-18T21:09:17.933Z,100829.72
2023-02-18T21:11:45.117Z,100823.44
2023-02-18T21:14:12.019Z,100830.50
2023-02-18T21:16:39.132Z,100834.06
2023-02-18T21:19:11.910Z,100835.63
2023-02-18T21:21:38.509Z,100842.81
2023-02-18T21:24:06.347Z,100840.53
2023-02-18T21:26:33.243Z,100848.63
2023-02-18T21:29:02.256Z,100855.72
2023-02-18T21:31:31.641Z,100844.84
2023-02-18T21:33:58.770Z,100849.75
2023-02-18T21:36:26.172Z,100850.31
2023-02-18T21:38:58.279Z,100866.31
2023-02-18T21:41:25.966Z,100859.66
2023-02-18T21:43:52.985Z,100852.03
2023-02-18T21:46:23.123Z,100862.88
2023-02-18T21:49:02.378Z,100854.38
2023-02-18T21:51:48.837Z,100858.03
2023-02-18T21:54:16.762Z,100846.78
2023-02-18T21:56:43.390Z,100849.47
2023-02-18T21:59:10.080Z,100854.19
2023-02-18T22:01:36.704Z,100856.28
2023-02-18T22:04:03.493Z,100855.84
2023-02-18T22:06:30.072Z,100853.47
2023-02-18T22:08:56.677Z,100857.97
2023-02-18T22:11:23.307Z,100861.13
2023-02-18T22:13:50.129Z,100859.84
2023-02-18T22:16:16.772Z,100870.16
2023-02-18T22:18:43.411Z,100882.84
2023-02-18T22:21:10.343Z,100882.63
2023-02-18T22:23:37.192Z,100870.72
2023-02-18T22:26:05.733Z,100874.38
2023-02-18T22:28:33.052Z,100876.13
2023-02-18T22:31:00.091Z,100874.94
2023-02-18T22:33:27.488Z,100878.59
2023-02-18T22:35:54.072Z,100884.50
2023-02-18T22:38:20.664Z,100888.91
2023-02-18T22:40:49.820Z,100884.88
2023-02-18T22:43:17.437Z,100888.84
2023-02-18T22:45:44.022Z,100875.00
2023-02-18T22:48:10.701Z,100875.19
2023-02-18T22:50:37.325Z,100867.28
2023-02-18T22:53:03.969Z,100867.81
2023-02-18T22:55:30.554Z,100861.06
2023-02-18T22:57:57.101Z,100860.44
2023-02-18T23:00:25.605Z,100861.31
2023-02-18T23:02:52.964Z,100865.81
2023-02-18T23:05:19.785Z,100867.31
2023-02-18T23:07:46.427Z,100864.31
2023-02-18T23:10:13.003Z,100868.53
2023-02-18T23:12:39.585Z,100865.66
2023-02-18T23:15:06.419Z,100861.91
2023-02-18T23:17:33.023Z,100863.84
2023-02-18T23:19:59.663Z,100857.88
2023-02-18T23:22:30.400Z,100857.38
2023-02-18T23:24:57.349Z,100859.19
2023-02-18T23:27:25.368Z,100860.69
2023-02-18T23:29:52.882Z,100863.44
2023-02-18T23:32:20.175Z,100867.44
2023-02-18T23:34:46.895Z,100863.38
2023-02-18T23:37:13.591Z,100864.84
2023-02-18T23:39:40.430Z,100861.59
2023-02-18T23:42:07.166Z,100864.84
2023-02-18T23:44:33.758Z,100850.28
2023-02-18T23:47:00.426Z,100853.22
2023-02-18T23:49:27.394Z,100853.16
2023-02-18T23:51:55.634Z,100854.66
2023-02-18T23:54:23.040Z,100856.53
2023-02-18T23:56:49.629Z,100853.28
2023-02-18T23:59:16.376Z,100847.69
